createdAt,value
2022-08-23T00:02:23.017Z,148402.88
2022-08-23T00:05:03.477Z,148389.41
2022-08-23T00:07:42.676Z,148393.03
2022-08-23T00:10:12.380Z,148331.81
2022-08-23T00:12:40.132Z,148391.81
2022-08-23T00:15:09.658Z,148322.03
2022-08-23T00:17:37.559Z,148366.16
2022-08-23T00:20:11.595Z,148368.56
2022-08-23T00:22:40.139Z,148384.50
2022-08-23T00:25:10.740Z,148378.34
2022-08-23T00:27:38.666Z,148351.41
2022-08-23T00:30:08.880Z,148335.50
2022-08-23T00:32:37.331Z,148317.13
2022-08-23T00:35:06.241Z,148314.66
2022-08-23T00:37:33.703Z,148297.56
2022-08-23T00:40:01.663Z,148292.66
2022-08-23T00:43:09.342Z,148273.06
2022-08-23T00:46:05.956Z,148279.22
2022-08-23T00:48:35.606Z,148262.06
2022-08-23T00:51:08.114Z,148273.06
2022-08-23T00:53:39.257Z,148238.81
2022-08-23T00:56:09.592Z,148247.38
2022-08-23T00:58:36.693Z,148248.59
2022-08-23T01:01:06.190Z,148203.31
2022-08-23T01:03:38.571Z,148214.34
2022-08-23T01:06:22.720Z,148191.13
2022-08-23T01:08:55.846Z,148209.47
2022-08-23T01:11:32.789Z,148182.53
2022-08-23T01:14:11.711Z,148187.44
2022-08-23T01:16:52.549Z,148182.53
2022-08-23T01:19:30.419Z,148194.75
2022-08-23T01:22:23.985Z,148151.94
2022-08-23T01:25:05.915Z,148136.00
2022-08-23T01:27:38.349Z,148106.63
2022-08-23T01:30:09.164Z,148113.97
2022-08-23T01:32:44.922Z,148033.25
2022-08-23T01:35:12.796Z,148017.38
2022-08-23T01:37:41.712Z,148094.38
2022-08-23T01:40:09.335Z,148078.50
2022-08-23T01:42:36.522Z,148060.16
2022-08-23T01:45:05.390Z,147999.03
2022-08-23T01:47:33.281Z,148030.81
2022-08-23T01:50:00.499Z,148011.22
2022-08-23T01:52:29.087Z,147995.34
2022-08-23T01:54:57.438Z,147969.66
2022-08-23T01:57:24.669Z,147952.56
2022-08-23T01:59:53.455Z,147934.16
2022-08-23T02:02:21.156Z,147923.16
2022-08-23T02:04:48.230Z,147884.03
2022-08-23T02:07:15.447Z,147874.22
2022-08-23T02:09:42.928Z,147881.56
2022-08-23T02:12:10.865Z,147866.91
2022-08-23T02:14:41.919Z,147849.78
2022-08-23T02:17:17.763Z,147822.88
2022-08-23T02:19:45.323Z,147818.00
2022-08-23T02:22:13.037Z,147776.44
2022-08-23T02:24:43.611Z,147793.56
2022-08-23T02:27:11.986Z,147785.00
2022-08-23T02:29:44.066Z,147778.91
2022-08-23T02:32:13.252Z,147707.97
2022-08-23T02:37:25.489Z,147756.91
2022-08-23T02:39:52.860Z,147758.13
2022-08-23T02:42:20.156Z,147739.78
2022-08-23T02:44:47.337Z,147750.81
2022-08-23T02:47:14.733Z,147646.88
2022-08-23T02:49:49.302Z,147710.44
2022-08-23T02:52:16.639Z,147693.31
2022-08-23T02:54:44.463Z,147698.19
2022-08-23T02:57:11.644Z,147676.19
2022-08-23T02:59:38.942Z,147670.09
2022-08-23T03:02:06.283Z,147615.13
2022-08-23T03:04:39.013Z,147637.13
2022-08-23T03:07:06.174Z,147623.66
2022-08-23T03:09:34.549Z,147612.66
2022-08-23T03:12:01.733Z,147670.09
2022-08-23T03:14:32.370Z,147644.41
2022-08-23T03:17:02.566Z,147646.88
2022-08-23T03:19:29.930Z,147633.44
2022-08-23T03:21:57.108Z,147588.22
2022-08-23T03:24:25.563Z,147593.13
2022-08-23T03:26:52.726Z,147569.91
2022-08-23T03:29:20.144Z,147580.88
2022-08-23T03:32:00.510Z,147601.66
2022-08-23T03:34:29.396Z,147627.34
2022-08-23T03:36:57.645Z,147649.31
2022-08-23T03:39:24.886Z,147627.34
2022-08-23T03:41:52.495Z,147645.66
2022-08-23T03:44:19.824Z,147656.66
2022-08-23T03:46:48.026Z,147656.66
2022-08-23T03:49:15.064Z,147654.19
2022-08-23T03:51:45.906Z,147633.44
2022-08-23T03:54:13.758Z,147624.88
2022-08-23T03:56:54.834Z,147568.69
2022-08-23T03:59:22.444Z,147585.81
2022-08-23T04:01:49.803Z,147556.47
2022-08-23T04:04:17.627Z,147527.16
2022-08-23T04:07:04.686Z,147507.59
2022-08-23T04:09:31.994Z,147480.72
2022-08-23T04:11:59.119Z,147466.03
2022-08-23T04:14:26.289Z,147448.97
2022-08-23T04:16:53.681Z,147423.31
2022-08-23T04:19:23.509Z,147398.91
2022-08-23T04:22:00.715Z,147405.00
2022-08-23T04:24:34.075Z,147383.00
2022-08-23T04:27:01.117Z,147385.47
2022-08-23T04:29:34.455Z,147378.13
2022-08-23T04:32:05.430Z,147378.13
2022-08-23T04:34:36.891Z,147363.47
2022-08-23T04:37:04.130Z,147373.25
2022-08-23T04:39:56.936Z,147378.13
2022-08-23T04:42:25.884Z,147390.34
2022-08-23T04:44:53.159Z,147368.34
2022-08-23T04:47:20.452Z,147380.59
2022-08-23T04:49:48.657Z,147358.59
2022-08-23T04:52:19.175Z,147387.88
2022-08-23T04:54:47.564Z,147381.78
2022-08-23T04:57:25.831Z,147384.25
2022-08-23T04:59:53.637Z,147405.00
2022-08-23T05:02:20.995Z,147431.88
2022-08-23T05:04:48.185Z,147442.84
2022-08-23T05:07:15.776Z,147452.59
2022-08-23T05:09:43.261Z,147447.72
2022-08-23T05:12:11.534Z,147379.34
2022-08-23T05:14:38.782Z,147459.94
2022-08-23T05:17:06.010Z,147422.09
2022-08-23T05:19:37.542Z,147446.50
2022-08-23T05:22:12.268Z,147408.66
2022-08-23T05:25:06.825Z,147385.47
2022-08-23T05:27:35.707Z,147444.09
2022-08-23T05:30:04.462Z,147453.84
2022-08-23T05:32:33.589Z,147379.34
2022-08-23T05:35:01.043Z,147480.72
2022-08-23T05:37:28.627Z,147502.72
2022-08-23T05:39:55.711Z,147467.28
2022-08-23T05:42:23.454Z,147539.34
2022-08-23T05:44:50.549Z,147596.78
2022-08-23T05:47:24.869Z,147615.13
2022-08-23T05:50:12.204Z,147642.00
2022-08-23T05:52:40.401Z,147673.78
2022-08-23T05:55:08.322Z,147585.81
2022-08-23T05:57:41.789Z,147695.78
2022-08-23T06:00:15.427Z,147711.63
2022-08-23T06:02:53.341Z,147743.47
2022-08-23T06:05:21.296Z,147761.78
2022-08-23T06:07:49.838Z,147700.66
2022-08-23T06:10:21.275Z,147781.34
2022-08-23T06:12:54.738Z,147820.47
2022-08-23T06:15:21.996Z,147862.03
2022-08-23T06:17:49.034Z,147913.38
2022-08-23T06:20:16.242Z,147909.69
2022-08-23T06:23:01.265Z,147964.75
2022-08-23T06:25:29.151Z,148019.78
2022-08-23T06:28:09.588Z,148033.25
2022-08-23T06:30:39.844Z,148040.59
2022-08-23T06:33:27.322Z,148080.97
2022-08-23T06:36:13.702Z,148118.88
2022-08-23T06:38:57.947Z,148133.53
2022-08-23T06:41:45.689Z,148180.06
2022-08-23T06:44:27.669Z,148191.13
2022-08-23T06:47:00.166Z,148215.56
2022-08-23T06:49:27.822Z,148248.59
2022-08-23T06:51:59.984Z,148246.19
2022-08-23T06:54:37.720Z,148276.72
2022-08-23T06:57:32.425Z,148309.78
2022-08-23T07:00:22.266Z,148357.56
2022-08-23T07:03:13.122Z,148399.19
2022-08-23T07:05:58.532Z,148390.63
2022-08-23T07:08:28.429Z,148402.88
2022-08-23T07:10:56.427Z,148439.59
2022-08-23T07:13:23.718Z,148419.97
2022-08-23T07:15:50.986Z,148395.50
2022-08-23T07:18:20.733Z,148394.28
2022-08-23T07:20:48.880Z,148419.97
2022-08-23T07:23:17.255Z,148449.38
2022-08-23T07:25:44.555Z,148464.06
2022-08-23T07:28:15.821Z,148457.97
2022-08-23T07:30:45.257Z,148439.59
2022-08-23T07:33:13.533Z,148525.25
2022-08-23T07:36:00.701Z,148515.47
2022-08-23T07:38:30.572Z,148521.59
2022-08-23T07:40:58.787Z,148486.13
2022-08-23T07:43:26.182Z,148516.69
2022-08-23T07:45:53.765Z,148479.97
2022-08-23T07:48:43.279Z,148595.09
2022-08-23T07:51:19.912Z,148586.56
2022-08-23T07:53:48.090Z,148634.31
2022-08-23T07:56:20.040Z,148622.06
2022-08-23T07:58:57.955Z,148559.63
2022-08-23T08:01:44.614Z,148562.06
2022-08-23T08:04:13.096Z,148566.94
2022-08-23T08:07:04.774Z,148564.53
2022-08-23T08:09:38.180Z,148565.72
2022-08-23T08:12:05.881Z,148584.09
2022-08-23T08:14:33.810Z,148649.00
2022-08-23T08:17:03.945Z,148652.69
2022-08-23T08:19:47.755Z,148791.16
2022-08-23T08:22:38.679Z,148814.44
2022-08-23T08:25:12.026Z,148841.41
2022-08-23T08:27:41.321Z,148890.44
2022-08-23T08:30:10.297Z,148867.16
2022-08-23T08:32:46.723Z,148905.13
2022-08-23T08:35:14.437Z,148900.25
2022-08-23T08:37:41.548Z,148948.06
2022-08-23T08:40:09.317Z,148962.75
2022-08-23T08:43:06.976Z,148932.16
2022-08-23T08:46:03.762Z,149049.81
2022-08-23T08:48:40.479Z,149071.88
2022-08-23T08:51:28.684Z,149130.78
2022-08-23T08:53:58.801Z,149152.88
2022-08-23T08:56:33.282Z,149074.34
2022-08-23T08:59:19.159Z,149190.88
2022-08-23T09:01:48.691Z,149197.00
2022-08-23T09:04:22.422Z,149201.91
2022-08-23T09:06:53.520Z,149231.34
2022-08-23T09:09:44.449Z,149278.00
2022-08-23T09:12:23.371Z,149329.53
2022-08-23T09:15:18.822Z,149327.09
2022-08-23T09:17:56.289Z,149352.81
2022-08-23T09:20:33.342Z,149344.22
2022-08-23T09:23:17.141Z,149379.81
2022-08-23T09:25:53.759Z,149422.81
2022-08-23T09:28:24.894Z,149447.38
2022-08-23T09:30:56.188Z,149457.19
2022-08-23T09:33:39.135Z,149436.31
2022-08-23T09:36:14.494Z,149399.44
2022-08-23T09:38:53.592Z,149464.56
2022-08-23T09:41:27.320Z,149484.19
2022-08-23T09:43:58.893Z,149516.09
2022-08-23T09:46:35.683Z,149495.22
2022-08-23T09:49:33.323Z,149552.91
2022-08-23T09:52:22.194Z,149447.38
2022-08-23T09:54:58.023Z,149371.22
2022-08-23T09:57:28.581Z,149524.69
2022-08-23T10:00:17.625Z,149535.72
2022-08-23T10:02:50.739Z,149560.25
2022-08-23T10:05:28.577Z,149606.94
2022-08-23T10:08:00.471Z,149645.03
2022-08-23T10:10:43.479Z,149640.13
2022-08-23T10:13:15.469Z,149624.13
2022-08-23T10:16:09.549Z,149675.69
2022-08-23T10:18:48.853Z,149685.50
2022-08-23T10:21:27.000Z,149715.00
2022-08-23T10:24:22.809Z,149737.16
2022-08-23T10:27:03.718Z,149774.00
2022-08-23T10:29:37.777Z,149675.69
2022-08-23T10:32:44.453Z,149774.00
2022-08-23T10:35:32.098Z,149801.00
2022-08-23T10:38:12.853Z,149831.69
2022-08-23T10:41:06.461Z,149850.09
2022-08-23T10:44:05.157Z,149875.91
2022-08-23T10:46:48.575Z,149863.63
2022-08-23T10:49:16.330Z,149889.47
2022-08-23T10:51:48.833Z,149933.69
2022-08-23T10:54:34.859Z,149936.16
2022-08-23T10:57:06.243Z,149861.19
2022-08-23T10:59:36.866Z,149885.75
2022-08-23T11:02:29.311Z,149823.09
2022-08-23T11:05:30.010Z,149867.31
2022-08-23T11:08:03.481Z,149834.16
2022-08-23T11:10:40.222Z,149855.03
2022-08-23T11:13:10.826Z,149862.41
2022-08-23T11:15:46.223Z,149808.34
2022-08-23T11:18:33.753Z,149911.59
2022-08-23T11:21:07.557Z,149977.91
2022-08-23T11:23:54.388Z,150034.41
2022-08-23T11:26:22.316Z,150140.16
2022-08-23T11:28:51.771Z,150145.06
2022-08-23T11:31:31.827Z,150118.00
2022-08-23T11:34:06.722Z,149993.88
2022-08-23T11:36:36.084Z,150059.06
2022-08-23T11:39:10.096Z,150131.53
2022-08-23T11:41:57.127Z,150137.72
2022-08-23T11:44:41.990Z,150124.19
2022-08-23T11:47:12.237Z,150122.94
2022-08-23T11:50:06.747Z,150061.50
2022-08-23T11:52:36.518Z,150130.31
2022-08-23T11:55:12.805Z,150137.72
2022-08-23T11:58:05.615Z,150093.47
2022-08-23T12:00:51.413Z,150210.25
2022-08-23T12:03:27.118Z,150287.69
2022-08-23T12:05:54.291Z,150281.56
2022-08-23T12:08:23.137Z,150402.09
2022-08-23T12:10:51.005Z,150398.38
2022-08-23T12:13:18.417Z,150531.25
2022-08-23T12:16:16.536Z,150518.94
2022-08-23T12:18:57.248Z,150522.63
2022-08-23T12:21:42.919Z,150434.06
2022-08-23T12:24:28.623Z,150371.31
2022-08-23T12:27:27.850Z,150335.72
2022-08-23T12:30:17.499Z,150301.22
2022-08-23T12:32:50.590Z,150271.72
2022-08-23T12:35:50.702Z,150351.66
2022-08-23T12:38:46.059Z,150425.44
2022-08-23T12:41:48.574Z,150528.78
2022-08-23T12:44:19.704Z,150514.03
2022-08-23T12:46:49.127Z,150482.03
2022-08-23T12:49:33.699Z,150378.72
2022-08-23T12:52:09.663Z,150383.63
2022-08-23T12:54:45.772Z,150363.97
2022-08-23T12:57:17.276Z,150356.59
2022-08-23T13:00:18.361Z,150295.09
2022-08-23T13:03:19.806Z,150313.53
2022-08-23T13:05:52.802Z,150323.34
2022-08-23T13:08:34.155Z,150282.78
2022-08-23T13:11:07.393Z,150363.97
2022-08-23T13:13:38.781Z,150434.06
2022-08-23T13:16:30.458Z,150464.81
2022-08-23T13:19:16.046Z,150475.91
2022-08-23T13:21:43.626Z,150584.13
2022-08-23T13:24:38.598Z,150632.16
2022-08-23T13:27:22.519Z,150681.34
2022-08-23T13:29:54.276Z,150701.06
2022-08-23T13:32:31.723Z,150629.69
2022-08-23T13:35:23.889Z,150531.25
2022-08-23T13:37:55.114Z,150526.34
2022-08-23T13:40:31.609Z,150582.91
2022-08-23T13:43:05.418Z,150548.47
2022-08-23T13:45:46.630Z,150596.44
2022-08-23T13:48:20.344Z,150681.34
2022-08-23T13:50:48.491Z,150742.91
2022-08-23T13:53:16.379Z,150715.81
2022-08-23T13:55:45.670Z,150740.41
2022-08-23T13:58:18.064Z,150723.22
2022-08-23T14:00:55.255Z,150625.97
2022-08-23T14:03:24.272Z,150533.69
2022-08-23T14:05:52.791Z,150512.81
2022-08-23T14:08:20.636Z,150469.78
2022-08-23T14:10:47.832Z,150501.75
2022-08-23T14:13:16.904Z,150520.19
2022-08-23T14:18:33.268Z,150477.13
2022-08-23T14:21:00.622Z,150499.28
2022-08-23T14:23:27.761Z,150500.50
2022-08-23T14:25:56.689Z,150486.97
2022-08-23T14:28:27.464Z,150553.41
2022-08-23T14:30:57.560Z,150546.00
2022-08-23T14:33:25.018Z,150598.91
2022-08-23T14:35:52.405Z,150659.25
2022-08-23T14:38:19.713Z,150712.13
2022-08-23T14:40:53.398Z,150677.69
2022-08-23T14:43:21.687Z,150767.53
2022-08-23T14:45:49.311Z,150701.06
2022-08-23T14:48:17.488Z,150644.44
2022-08-23T14:50:45.219Z,150610.03
2022-08-23T14:53:17.902Z,150569.38
2022-08-23T14:55:45.863Z,150546.00
2022-08-23T14:58:12.894Z,150557.09
2022-08-23T15:00:40.206Z,150523.84
2022-08-23T15:03:10.199Z,150509.09
2022-08-23T15:05:37.461Z,150457.41
2022-08-23T15:08:04.482Z,150462.34
2022-08-23T15:13:26.147Z,150354.16
2022-08-23T15:15:54.852Z,150329.53
2022-08-23T15:18:23.194Z,150325.78
2022-08-23T15:20:52.200Z,150311.03
2022-08-23T15:23:20.288Z,150314.75
2022-08-23T15:25:47.646Z,150297.50
2022-08-23T15:28:16.503Z,150308.59
2022-08-23T15:30:44.808Z,150327.06
2022-08-23T15:33:12.065Z,150338.13
2022-08-23T15:35:46.941Z,150304.91
2022-08-23T15:38:16.074Z,150324.56
2022-08-23T15:40:43.222Z,150325.78
2022-08-23T15:43:10.847Z,150351.66
2022-08-23T15:45:38.587Z,150309.81
2022-08-23T15:48:15.670Z,150363.97
2022-08-23T15:50:45.630Z,150383.63
2022-08-23T15:53:13.745Z,150324.56
2022-08-23T15:55:42.096Z,150424.22
2022-08-23T15:58:14.709Z,150516.50
2022-08-23T16:00:41.833Z,150607.50
2022-08-23T16:03:19.492Z,150575.56
2022-08-23T16:05:50.737Z,150543.56
2022-08-23T16:08:30.522Z,150536.16
2022-08-23T16:10:58.156Z,150516.50
2022-08-23T16:13:26.349Z,150514.03
2022-08-23T16:15:53.552Z,150514.03
2022-08-23T16:18:20.708Z,150494.34
2022-08-23T16:20:47.748Z,150438.97
2022-08-23T16:23:15.054Z,150399.59
2022-08-23T16:25:42.844Z,150445.09
2022-08-23T16:28:10.036Z,150506.66
2022-08-23T16:30:37.255Z,150435.28
2022-08-23T16:33:06.278Z,150415.59
2022-08-23T16:35:33.343Z,150422.97
2022-08-23T16:38:00.594Z,150336.91
2022-08-23T16:40:27.968Z,150365.19
2022-08-23T16:42:56.253Z,150359.06
2022-08-23T16:45:25.736Z,150270.47
2022-08-23T16:47:53.969Z,150319.66
2022-08-23T16:50:21.410Z,150277.84
2022-08-23T16:52:48.429Z,150354.16
2022-08-23T16:55:15.725Z,150308.59
2022-08-23T16:57:42.798Z,150318.44
2022-08-23T17:00:12.887Z,150277.84
2022-08-23T17:02:40.839Z,150456.19
2022-08-23T17:05:11.579Z,150595.22
2022-08-23T17:07:39.425Z,151112.31
2022-08-23T17:10:08.866Z,151395.69
2022-08-23T17:12:39.744Z,151628.63
2022-08-23T17:15:08.478Z,151842.00
2022-08-23T17:17:35.640Z,151856.78
2022-08-23T17:20:03.586Z,151828.44
2022-08-23T17:22:33.728Z,151716.19
2022-08-23T17:25:00.849Z,151721.09
2022-08-23T17:27:27.841Z,151590.44
2022-08-23T17:29:54.910Z,151166.50
2022-08-23T17:32:22.018Z,150856.13
2022-08-23T17:34:49.050Z,150642.00
2022-08-23T17:37:22.901Z,150452.50
2022-08-23T17:39:51.221Z,150319.66
2022-08-23T17:42:21.301Z,150184.44
2022-08-23T17:44:48.823Z,150157.38
2022-08-23T17:47:18.081Z,150079.94
2022-08-23T17:49:46.665Z,150014.78
2022-08-23T17:52:13.880Z,149898.09
2022-08-23T17:54:41.209Z,149906.63
2022-08-23T17:57:10.524Z,149836.59
2022-08-23T17:59:37.996Z,149774.00
2022-08-23T18:02:06.573Z,149824.34
2022-08-23T18:04:34.048Z,149815.75
2022-08-23T18:07:01.973Z,149793.63
2022-08-23T18:09:29.041Z,149745.75
2022-08-23T18:11:56.489Z,149687.97
2022-08-23T18:14:23.608Z,149660.97
2022-08-23T18:16:51.614Z,149579.97
2022-08-23T18:19:18.855Z,149584.88
2022-08-23T18:21:46.921Z,149518.53
2022-08-23T18:24:14.412Z,149545.53
2022-08-23T18:27:01.004Z,149469.47
2022-08-23T18:29:29.426Z,149453.50
2022-08-23T18:31:56.788Z,149392.13
2022-08-23T18:34:23.946Z,149427.75
2022-08-23T18:36:51.242Z,149346.72
2022-08-23T18:39:31.295Z,149363.91
2022-08-23T18:42:01.563Z,149309.91
2022-08-23T18:44:29.908Z,149296.41
2022-08-23T18:46:58.140Z,149254.72
2022-08-23T18:49:25.306Z,149182.28
2022-08-23T18:51:52.516Z,149221.56
2022-08-23T18:54:19.884Z,149228.88
2022-08-23T18:56:47.347Z,149194.56
2022-08-23T18:59:14.423Z,149171.28
2022-08-23T19:01:42.634Z,149135.69
2022-08-23T19:04:13.253Z,149118.50
2022-08-23T19:06:40.961Z,149107.50
2022-08-23T19:09:09.189Z,149098.91
2022-08-23T19:11:41.282Z,149008.13
2022-08-23T19:14:10.700Z,149071.88
2022-08-23T19:16:38.975Z,149076.78
2022-08-23T19:19:06.794Z,149071.88
2022-08-23T19:21:34.016Z,149025.31
2022-08-23T19:24:01.731Z,148973.81
2022-08-23T19:26:31.877Z,148961.56
2022-08-23T19:28:59.427Z,148941.94
2022-08-23T19:31:31.843Z,148889.19
2022-08-23T19:34:01.682Z,148842.63
2022-08-23T19:36:45.155Z,148916.19
2022-08-23T19:39:13.766Z,148885.53
2022-08-23T19:41:41.204Z,148876.97
2022-08-23T19:44:09.265Z,148794.84
2022-08-23T19:46:41.045Z,148862.25
2022-08-23T19:49:11.864Z,148810.75
2022-08-23T19:51:39.796Z,148787.47
2022-08-23T19:54:11.533Z,148774.00
2022-08-23T19:56:57.596Z,148696.81
2022-08-23T19:59:30.453Z,148700.44
2022-08-23T20:01:58.710Z,148720.06
2022-08-23T20:04:28.491Z,148750.72
2022-08-23T20:06:57.546Z,148668.59
2022-08-23T20:09:26.696Z,148674.75
2022-08-23T20:11:53.745Z,148691.91
2022-08-23T20:14:23.686Z,148650.22
2022-08-23T20:16:50.974Z,148645.31
2022-08-23T20:19:18.526Z,148641.69
2022-08-23T20:21:45.614Z,148667.38
2022-08-23T20:24:14.541Z,148693.13
2022-08-23T20:26:45.127Z,148657.59
2022-08-23T20:29:17.090Z,148638.00
2022-08-23T20:32:00.154Z,148639.22
2022-08-23T20:34:28.393Z,148615.94
2022-08-23T20:36:56.073Z,148574.31
2022-08-23T20:39:24.344Z,148609.84
2022-08-23T20:41:52.518Z,148630.63
2022-08-23T20:44:21.665Z,148611.06
2022-08-23T20:46:53.758Z,148598.78
2022-08-23T20:49:22.310Z,148570.63
2022-08-23T20:51:50.227Z,148535.06
2022-08-23T20:54:18.173Z,148542.47
2022-08-23T20:56:45.680Z,148557.16
2022-08-23T20:59:15.496Z,148528.94
2022-08-23T21:01:42.566Z,148468.97
2022-08-23T21:04:10.287Z,148432.22
2022-08-23T21:06:45.209Z,148417.53
2022-08-23T21:09:19.580Z,148456.69
2022-08-23T21:11:48.416Z,148439.59
2022-08-23T21:14:17.707Z,148369.78
2022-08-23T21:16:46.125Z,148391.81
2022-08-23T21:19:14.504Z,148351.41
2022-08-23T21:21:42.277Z,148383.25
2022-08-23T21:24:11.179Z,148439.59
2022-08-23T21:26:38.665Z,148439.59
2022-08-23T21:29:07.567Z,148433.44
2022-08-23T21:31:34.992Z,148296.31
2022-08-23T21:34:02.244Z,148312.22
2022-08-23T21:36:29.507Z,148308.56
2022-08-23T21:38:56.708Z,148248.59
2022-08-23T21:41:31.937Z,148287.78
2022-08-23T21:43:59.373Z,148253.50
2022-08-23T21:46:27.056Z,148221.66
2022-08-23T21:48:54.134Z,148233.91
2022-08-23T21:51:21.225Z,148187.44
2022-08-23T21:53:48.480Z,148182.53
2022-08-23T21:56:15.635Z,148230.25
2022-08-23T21:58:44.024Z,148122.56
2022-08-23T22:01:11.211Z,148175.19
2022-08-23T22:03:38.295Z,148175.19
2022-08-23T22:06:11.663Z,148218.00
2022-08-23T22:08:39.589Z,148167.81
2022-08-23T22:11:07.665Z,148166.63
2022-08-23T22:13:35.493Z,148160.50
2022-08-23T22:16:03.079Z,148164.19
2022-08-23T22:18:31.243Z,148180.06
2022-08-23T22:20:59.479Z,148211.88
2022-08-23T22:23:28.864Z,148203.31
2022-08-23T22:25:57.828Z,148117.66
2022-08-23T22:28:24.881Z,148171.50
2022-08-23T22:30:52.949Z,148151.94
2022-08-23T22:33:21.292Z,148149.47
2022-08-23T22:35:49.010Z,148079.72
2022-08-23T22:38:17.247Z,148088.28
2022-08-23T22:40:49.337Z,148066.25
2022-08-23T22:43:17.476Z,148050.38
2022-08-23T22:45:53.475Z,148036.91
2022-08-23T22:48:21.511Z,147957.44
2022-08-23T22:50:49.023Z,147996.56
2022-08-23T22:53:17.629Z,147981.88
2022-08-23T22:55:50.541Z,147947.63
2022-08-23T22:58:18.079Z,147930.50
2022-08-23T23:00:45.319Z,147930.50
2022-08-23T23:03:12.717Z,147906.00
2022-08-23T23:05:40.047Z,147923.16
2022-08-23T23:08:25.679Z,147931.72
2022-08-23T23:10:58.199Z,147884.03
2022-08-23T23:13:27.342Z,147901.13
2022-08-23T23:15:54.577Z,147881.56
2022-08-23T23:18:22.600Z,147866.91
2022-08-23T23:20:49.989Z,147865.72
2022-08-23T23:23:21.388Z,147869.34
2022-08-23T23:25:49.507Z,147844.91
2022-08-23T23:28:18.453Z,147776.44
2022-08-23T23:30:48.421Z,147798.47
2022-08-23T23:33:16.433Z,147781.34
2022-08-23T23:35:43.949Z,147807.03
2022-08-23T23:38:11.174Z,147755.69
2022-08-23T23:40:39.007Z,147786.22
2022-08-23T23:43:06.521Z,147754.44
2022-08-23T23:45:37.223Z,147688.44
2022-08-23T23:48:04.468Z,147759.31
2022-08-23T23:50:39.715Z,147730.00
2022-08-23T23:53:12.388Z,147739.78
2022-08-23T23:55:39.480Z,147707.97
2022-08-23T23:58:06.526Z,147733.69
